Archiv-/Tagesdaten

--Timestamp---	Temp	Chill	HIndex	Humid	Dewpt	Wind	HiWind	WindDir	Rain	Barom	        Solar	ET	UV
--------------	----	-----	------	-----	-----	----	------	-------	----	-----	        -----	--	--
20090201 00:05	-5.5	-5.5	-5.5	88	-7.2	3	5	157	0.00	1013.278	0	0.000	0
20090201 00:10	-5.3	-5.3	-5.3	88	-7.0	2	5	157	0.00	1013.210	0	0.000	0
20090201 00:15	-5.2	-5.2	-5.2	88	-6.8	2	6	157	0.00	1013.041	0	0.000	0
20090201 00:20	-5.0	-5.0	-5.0	88	-6.7	3	6	157	0.00	1012.939	0	0.000	0
20090201 00:25	-4.9	-4.9	-4.9	88	-6.6	2	5	157	0.00	1012.906	0	0.000	0
20090201 00:30	-4.8	-4.8	-4.8	87	-6.7	2	6	112	0.00	1012.804	0	0.000	0
20090201 00:35	-4.8	-4.8	-4.8	87	-6.7	3	6	90	0.00	1012.770	0	0.000	0
20090201 00:40	-4.8	-4.8	-4.8	87	-6.7	3	5	90	0.00	1012.736	0	0.000	0
20090201 00:45	-4.8	-4.8	-4.8	87	-6.7	2	5	67	0.00	1012.736	0	0.000	0
20090201 00:50	-4.9	-4.9	-4.9	87	-6.7	3	6	135	0.00	1012.635	0	0.000	0
20090201 00:55	-4.8	-4.8	-4.8	87	-6.7	3	6	90	0.00	1012.567	0	0.000	0
20090201 01:00	-4.8	-4.8	-4.8	87	-6.7	3	6	90	0.00	1012.465	0	0.000	0
20090201 01:05	-4.8	-4.8	-4.8	87	-6.7	2	5	90	0.00	1012.364	0	0.000	0
20090201 01:10	-4.8	-4.8	-4.8	87	-6.7	2	5	90	0.00	1012.330	0	0.000	0
20090201 01:15	-4.8	-4.8	-4.8	87	-6.7	3	6	90	0.00	1012.228	0	0.000	0
20090201 01:20	-4.8	-4.8	-4.8	87	-6.7	2	6	90	0.00	1012.228	0	0.000	0
20090201 01:25	-4.8	-4.8	-4.8	87	-6.7	3	6	135	0.00	1012.228	0	0.000	0
20090201 01:30	-4.8	-4.8	-4.8	87	-6.6	2	5	135	0.00	1012.194	0	0.000	0
20090201 01:35	-4.7	-4.7	-4.7	86	-6.7	3	8	90	0.00	1012.161	0	0.000	0
20090201 01:40	-4.7	-4.7	-4.7	86	-6.6	3	8	135	0.00	1012.161	0	0.000	0
20090201 01:45	-4.6	-4.6	-4.6	87	-6.4	3	8	112	0.00	1012.161	0	0.000	0
20090201 01:50	-4.6	-4.6	-4.6	86	-6.5	3	10	90	0.00	1012.025	0	0.000	0
20090201 01:55	-4.4	-4.4	-4.4	86	-6.4	3	10	90	0.00	1011.924	0	0.000	0
20090201 02:00	-4.3	-4.3	-4.3	86	-6.3	5	10	67	0.00	1011.856	0	0.000	0
20090201 02:05	-4.3	-4.3	-4.3	86	-6.3	3	10	45	0.00	1011.754	0	0.000	0
20090201 02:10	-4.3	-4.3	-4.3	86	-6.3	5	11	90	0.00	1011.686	0	0.000	0
20090201 02:15	-4.3	-4.3	-4.3	86	-6.3	3	8	90	0.00	1011.585	0	0.000	0
20090201 02:20	-4.3	-4.3	-4.3	86	-6.3	3	8	112	0.00	1011.517	0	0.000	0
20090201 02:25	-4.3	-4.3	-4.3	86	-6.3	3	8	90	0.00	1011.449	0	0.000	0
20090201 02:30	-4.3	-4.3	-4.3	86	-6.3	3	10	90	0.00	1011.416	0	0.000	0
20090201 02:35	-4.4	-4.4	-4.4	86	-6.4	3	8	90	0.00	1011.348	0	0.000	0
20090201 02:40	-4.4	-4.4	-4.4	86	-6.4	3	8	90	0.00	1011.280	0	0.000	0
20090201 02:45	-4.4	-4.4	-4.4	86	-6.4	3	6	112	0.00	1011.145	0	0.000	0
20090201 02:50	-4.4	-4.4	-4.4	86	-6.4	3	10	67	0.00	1011.145	0	0.000	0
20090201 02:55	-4.4	-4.4	-4.4	86	-6.4	3	6	67	0.00	1011.077	0	0.000	0
20090201 03:00	-4.4	-4.4	-4.4	86	-6.4	3	8	67	0.00	1010.975	0	0.000	0
20090201 03:05	-4.4	-4.4	-4.4	87	-6.2	3	8	112	0.00	1011.077	0	0.000	0
20090201 03:10	-4.4	-4.4	-4.4	87	-6.2	3	6	67	0.00	1010.941	0	0.000	0
20090201 03:15	-4.3	-4.3	-4.3	86	-6.3	3	6	112	0.00	1010.908	0	0.000	0
20090201 03:20	-4.3	-4.3	-4.3	86	-6.3	3	8	112	0.00	1010.806	0	0.000	0
20090201 03:25	-4.3	-4.3	-4.3	87	-6.2	3	11	45	0.00	1010.738	0	0.000	0
20090201 03:30	-4.3	-4.3	-4.3	86	-6.3	3	6	90	0.00	1010.704	0	0.000	0
20090201 03:35	-4.3	-4.3	-4.3	87	-6.2	3	8	67	0.00	1010.603	0	0.000	0
20090201 03:40	-4.3	-4.3	-4.3	87	-6.1	3	8	90	0.00	1010.671	0	0.000	0
20090201 03:45	-4.3	-4.3	-4.3	87	-6.2	5	11	112	0.00	1010.603	0	0.000	0
20090201 03:50	-4.3	-4.3	-4.3	87	-6.1	5	10	67	0.00	1010.569	0	0.000	0
20090201 03:55	-4.3	-4.3	-4.3	86	-6.3	5	8	45	0.00	1010.535	0	0.000	0
20090201 04:00	-4.3	-4.3	-4.3	86	-6.3	5	11	67	0.00	1010.467	0	0.000	0
20090201 04:05	-4.3	-4.3	-4.3	86	-6.3	3	8	67	0.00	1010.433	0	0.000	0
20090201 04:10	-4.3	-4.3	-4.3	86	-6.3	3	8	135	0.00	1010.298	0	0.000	0
20090201 04:15	-4.3	-4.3	-4.3	86	-6.3	3	8	90	0.00	1010.332	0	0.000	0
20090201 04:20	-4.3	-4.3	-4.3	86	-6.3	3	6	112	0.00	1010.298	0	0.000	0
20090201 04:25	-4.3	-4.3	-4.3	86	-6.3	3	6	112	0.00	1010.264	0	0.000	0
20090201 04:30	-4.4	-4.4	-4.4	87	-6.2	3	6	67	0.00	1010.230	0	0.000	0
20090201 04:35	-4.4	-4.4	-4.4	86	-6.4	3	6	67	0.00	1010.196	0	0.000	0
20090201 04:40	-4.4	-4.4	-4.4	86	-6.4	2	5	67	0.00	1010.196	0	0.000	0
20090201 04:45	-4.4	-4.4	-4.4	86	-6.4	3	11	67	0.00	1010.129	0	0.000	0
20090201 04:50	-4.4	-4.4	-4.4	86	-6.4	3	10	67	0.00	1009.993	0	0.000	0
20090201 04:55	-4.4	-4.4	-4.4	86	-6.4	2	6	90	0.00	1010.027	0	0.000	0
20090201 05:00	-4.4	-4.4	-4.4	87	-6.3	3	10	90	0.00	1010.027	0	0.000	0
20090201 05:05	-4.5	-4.5	-4.5	87	-6.3	2	8	90	0.00	1010.027	0	0.000	0
20090201 05:10	-4.5	-4.5	-4.5	87	-6.3	2	5	112	0.00	1010.027	0	0.000	0
20090201 05:15	-4.5	-4.5	-4.5	87	-6.3	2	6	112	0.00	1009.993	0	0.000	0
20090201 05:20	-4.5	-4.5	-4.5	87	-6.3	3	6	90	0.00	1009.926	0	0.000	0
20090201 05:25	-4.5	-4.5	-4.5	87	-6.3	3	6	90	0.00	1009.959	0	0.000	0
20090201 05:30	-4.5	-4.5	-4.5	87	-6.3	2	5	90	0.00	1009.858	0	0.000	0
20090201 05:35	-4.6	-4.6	-4.6	87	-6.4	2	5	90	0.00	1009.824	0	0.000	0
20090201 05:40	-4.6	-4.6	-4.6	87	-6.4	3	6	90	0.00	1009.756	0	0.000	0
20090201 05:45	-4.6	-4.6	-4.6	87	-6.4	3	6	67	0.00	1009.655	0	0.000	0
20090201 05:50	-4.6	-4.6	-4.6	87	-6.4	3	6	90	0.00	1009.688	0	0.000	0
20090201 05:55	-4.6	-4.6	-4.6	87	-6.4	3	8	112	0.00	1009.655	0	0.000	0
20090201 06:00	-4.5	-4.5	-4.5	87	-6.3	2	6	135	0.00	1009.655	0	0.000	0
20090201 06:05	-4.5	-4.5	-4.5	87	-6.3	3	8	112	0.00	1009.655	0	0.000	0
20090201 06:10	-4.5	-4.5	-4.5	87	-6.3	3	8	67	0.00	1009.655	0	0.000	0
20090201 06:15	-4.5	-4.5	-4.5	86	-6.5	3	10	112	0.00	1009.621	0	0.000	0
20090201 06:20	-4.5	-4.5	-4.5	86	-6.5	3	10	90	0.00	1009.587	0	0.000	0
20090201 06:25	-4.5	-4.5	-4.5	86	-6.5	3	10	90	0.00	1009.587	0	0.000	0
20090201 06:30	-4.6	-4.6	-4.6	86	-6.5	3	6	90	0.00	1009.553	0	0.000	0
20090201 06:35	-4.6	-4.6	-4.6	86	-6.6	3	8	112	0.00	1009.485	0	0.000	0
20090201 06:40	-4.7	-4.7	-4.7	86	-6.6	3	6	112	0.00	1009.485	0	0.000	0
20090201 06:45	-4.7	-4.7	-4.7	86	-6.6	3	8	90	0.00	1009.451	0	0.000	0
20090201 06:50	-4.7	-4.7	-4.7	86	-6.7	3	8	90	0.00	1009.418	0	0.000	0
20090201 06:55	-4.8	-4.8	-4.8	87	-6.6	2	8	112	0.00	1009.451	0	0.000	0
20090201 07:00	-4.8	-4.8	-4.8	87	-6.6	3	6	90	0.00	1009.485	0	0.000	0
20090201 07:05	-4.8	-4.8	-4.8	87	-6.6	3	10	90	0.00	1009.485	0	0.000	0
20090201 07:10	-4.8	-4.8	-4.8	87	-6.6	3	10	90	0.00	1009.418	0	0.000	0
20090201 07:15	-4.8	-4.8	-4.8	87	-6.6	3	10	90	0.00	1009.485	0	0.000	0
20090201 07:20	-4.8	-4.8	-4.8	87	-6.6	3	8	90	0.00	1009.485	0	0.000	0
20090201 07:25	-4.7	-4.7	-4.7	87	-6.5	3	6	112	0.00	1009.485	0	0.000	0
20090201 07:30	-4.7	-4.7	-4.7	87	-6.5	3	8	112	0.00	1009.418	0	0.000	0
20090201 07:35	-4.7	-4.7	-4.7	87	-6.5	3	8	90	0.00	1009.384	0	0.000	0
20090201 07:40	-4.7	-4.7	-4.7	87	-6.5	3	10	90	0.00	1009.350	0	0.000	0
20090201 07:45	-4.7	-4.7	-4.7	87	-6.5	3	6	90	0.00	1009.282	0	0.000	0
20090201 07:50	-4.7	-4.7	-4.7	87	-6.5	3	6	157	0.00	1009.248	3	0.000	0
20090201 07:55	-4.7	-4.7	-4.7	87	-6.5	2	6	135	0.00	1009.282	7	0.000	0
20090201 08:00	-4.7	-4.7	-4.7	87	-6.5	3	6	67	0.00	1009.282	9	0.000	0
20090201 08:05	-4.6	-4.6	-4.6	87	-6.4	3	8	67	0.00	1009.214	13	0.000	0
20090201 08:10	-4.6	-4.6	-4.6	87	-6.4	3	10	67	0.00	1009.214	17	0.000	0
20090201 08:15	-4.5	-4.5	-4.5	87	-6.3	3	8	112	0.00	1009.079	18	0.000	0
20090201 08:20	-4.4	-4.4	-4.4	87	-6.3	3	6	112	0.00	1008.977	17	0.000	0
20090201 08:25	-4.4	-4.4	-4.4	87	-6.2	3	10	135	0.00	1009.011	14	0.000	0
20090201 08:30	-4.3	-4.3	-4.3	87	-6.2	3	6	90	0.00	1008.943	15	0.000	0
20090201 08:35	-4.3	-4.3	-4.3	87	-6.1	5	11	112	0.00	1008.943	18	0.000	0
20090201 08:40	-4.2	-4.2	-4.2	87	-6.1	5	11	112	0.00	1008.910	24	0.000	0
20090201 08:45	-4.2	-4.2	-4.2	86	-6.2	5	14	90	0.00	1008.774	29	0.000	0
20090201 08:50	-4.1	-6.9	-4.1	85	-6.3	6	18	112	0.00	1008.740	31	0.000	0
20090201 08:55	-4.1	-7.5	-4.1	85	-6.2	8	16	112	0.00	1008.774	35	0.000	0
20090201 09:00	-4.0	-6.8	-4.0	84	-6.3	6	18	135	0.00	1008.774	37	0.000	0
20090201 09:05	-3.9	-3.9	-3.9	85	-6.1	5	14	135	0.00	1008.774	38	0.000	0
20090201 09:10	-3.9	-3.9	-3.9	85	-6.0	5	10	112	0.00	1008.706	50	0.000	0
20090201 09:15	-3.8	-7.2	-3.8	84	-6.1	8	18	112	0.00	1008.740	48	0.000	0
20090201 09:20	-3.8	-6.6	-3.8	83	-6.3	6	16	112	0.00	1008.706	55	0.000	0
20090201 09:25	-3.8	-6.5	-3.8	83	-6.2	6	16	135	0.00	1008.673	57	0.000	0
20090201 09:30	-3.8	-6.5	-3.8	83	-6.2	6	18	112	0.00	1008.706	57	0.000	0
20090201 09:35	-3.7	-6.5	-3.7	83	-6.2	6	16	112	0.00	1008.639	53	0.000	0
20090201 09:40	-3.7	-3.7	-3.7	83	-6.2	5	11	112	0.00	1008.571	52	0.000	0
20090201 09:45	-3.7	-6.5	-3.7	83	-6.2	6	13	135	0.00	1008.503	57	0.000	0
20090201 09:50	-3.7	-3.7	-3.7	83	-6.1	3	10	112	0.00	1008.435	73	0.000	0
20090201 09:55	-3.7	-6.4	-3.7	83	-6.1	6	14	90	0.00	1008.334	84	0.000	0
20090201 10:00	-3.6	-6.4	-3.6	82	-6.2	6	14	90	0.00	1008.300	95	0.020	0
20090201 10:05	-3.6	-7.4	-3.6	82	-6.2	10	18	112	0.00	1008.232	104	0.000	0
20090201 10:10	-3.6	-6.9	-3.6	82	-6.2	8	18	112	0.00	1008.232	118	0.000	0
20090201 10:15	-3.6	-6.3	-3.6	81	-6.3	6	18	90	0.00	1008.165	90	0.000	0
20090201 10:20	-3.6	-6.3	-3.6	82	-6.2	6	14	90	0.00	1008.232	69	0.000	0
20090201 10:25	-3.6	-6.3	-3.6	81	-6.3	6	13	67	0.00	1008.266	88	0.000	0
20090201 10:30	-3.6	-3.6	-3.6	82	-6.2	5	14	112	0.00	1008.232	85	0.000	0
20090201 10:35	-3.6	-6.3	-3.6	82	-6.2	6	18	90	0.00	1008.198	81	0.000	0
20090201 10:40	-3.6	-6.9	-3.6	82	-6.2	8	21	90	0.00	1008.198	70	0.000	0
20090201 10:45	-3.6	-3.6	-3.6	82	-6.2	5	18	112	0.00	1008.131	74	0.000	0
20090201 10:50	-3.6	-6.3	-3.6	82	-6.2	6	11	112	0.00	1008.165	93	0.000	0
20090201 10:55	-3.6	-6.3	-3.6	82	-6.2	6	16	90	0.00	1008.131	74	0.000	0
20090201 11:00	-3.6	-3.6	-3.6	82	-6.2	5	11	90	0.00	1007.995	73	0.020	0
20090201 11:05	-3.6	-6.4	-3.6	82	-6.2	6	14	90	0.00	1007.928	78	0.000	0
20090201 11:10	-3.6	-6.4	-3.6	82	-6.2	6	16	90	0.00	1007.928	76	0.000	0
20090201 11:15	-3.6	-3.6	-3.6	83	-6.0	5	11	112	0.00	1007.928	77	0.000	0
20090201 11:20	-3.5	-6.2	-3.5	82	-6.1	6	19	112	0.00	1007.928	86	0.000	0
20090201 11:25	-3.5	-6.8	-3.5	82	-6.1	8	21	112	0.00	1007.894	88	0.000	0
20090201 11:30	-3.5	-7.4	-3.5	82	-6.1	10	19	112	0.00	1007.860	90	0.000	0
20090201 11:35	-3.4	-6.2	-3.4	82	-6.1	6	18	112	0.00	1007.792	96	0.000	0
20090201 11:40	-3.4	-6.2	-3.4	82	-6.1	6	11	90	0.00	1007.792	106	0.000	0
20090201 11:45	-3.3	-6.0	-3.3	82	-6.0	6	16	135	0.00	1007.657	145	0.000	0
20090201 11:50	-3.2	-3.2	-3.2	82	-5.9	5	14	135	0.00	1007.589	177	0.000	1
20090201 11:55	-3.2	-6.5	-3.2	81	-6.0	8	19	112	0.00	1007.589	208	0.000	1
20090201 12:00	-3.1	-6.3	-3.1	81	-5.8	8	18	112	0.00	1007.623	207	0.040	1
20090201 12:05	-3.1	-6.3	-3.1	81	-5.8	8	16	90	0.00	1007.284	206	0.000	1
20090201 12:10	-3.0	-6.3	-3.0	80	-6.0	8	18	90	0.00	1007.250	209	0.000	1
20090201 12:15	-3.0	-6.3	-3.0	79	-6.1	8	19	90	0.00	1007.216	170	0.000	1
20090201 12:20	-3.1	-5.8	-3.1	79	-6.2	6	16	90	0.00	1007.149	164	0.000	1
20090201 12:25	-3.0	-6.8	-3.0	80	-6.0	10	18	90	0.00	1007.013	194	0.000	1
20090201 12:30	-3.0	-6.3	-3.0	79	-6.1	8	18	90	0.00	1006.979	224	0.000	1
20090201 12:35	-2.9	-6.2	-2.9	78	-6.2	8	16	67	0.00	1007.013	220	0.000	1
20090201 12:40	-2.9	-5.6	-2.9	79	-6.1	6	13	90	0.00	1006.844	282	0.000	1
20090201 12:45	-2.8	-6.0	-2.8	78	-6.1	8	19	90	0.00	1006.878	285	0.000	1
20090201 12:50	-2.8	-5.4	-2.8	78	-6.1	6	14	112	0.00	1006.810	227	0.000	1
20090201 12:55	-2.8	-6.0	-2.8	77	-6.2	8	14	67	0.00	1006.708	223	0.000	1
20090201 13:00	-2.9	-2.9	-2.9	78	-6.2	5	11	67	0.00	1006.742	156	0.060	1
20090201 13:05	-3.1	-6.3	-3.1	78	-6.3	8	16	90	0.00	1006.675	132	0.000	1
20090201 13:10	-3.1	-3.1	-3.1	78	-6.3	5	11	67	0.00	1006.471	123	0.000	1
20090201 13:15	-3.1	-6.4	-3.1	78	-6.4	8	18	90	0.00	1006.438	134	0.000	1
20090201 13:20	-3.2	-5.8	-3.2	79	-6.3	6	13	67	0.00	1006.336	161	0.000	1
20090201 13:25	-3.0	-3.0	-3.0	79	-6.1	5	10	67	0.00	1006.370	291	0.000	1
20090201 13:30	-2.8	-5.5	-2.8	78	-6.1	6	16	90	0.00	1006.268	284	0.000	1
20090201 13:35	-2.8	-5.5	-2.8	78	-6.1	6	16	90	0.00	1006.133	175	0.000	1
20090201 13:40	-2.9	-2.9	-2.9	78	-6.2	5	11	67	0.00	1006.167	136	0.000	1
20090201 13:45	-2.8	-5.5	-2.8	78	-6.1	6	16	90	0.00	1006.133	204	0.000	1
20090201 13:50	-2.7	-2.7	-2.7	78	-6.0	5	11	90	0.00	1005.963	329	0.000	1
20090201 13:55	-2.4	-5.0	-2.4	77	-5.9	6	16	112	0.00	1005.828	264	0.000	1
20090201 14:00	-2.4	-5.0	-2.4	77	-5.9	6	14	90	0.00	1005.726	251	0.060	1
20090201 14:05	-2.4	-5.0	-2.4	76	-6.1	6	14	90	0.00	1005.659	313	0.000	1
20090201 14:10	-2.4	-4.9	-2.4	77	-5.9	6	16	112	0.00	1005.625	274	0.000	1
20090201 14:15	-2.3	-4.9	-2.3	77	-5.8	6	11	112	0.00	1005.591	267	0.000	1
20090201 14:20	-2.3	-4.8	-2.3	76	-5.9	6	16	112	0.00	1005.388	292	0.000	1
20090201 14:25	-2.4	-5.5	-2.4	76	-6.0	8	23	112	0.00	1005.252	121	0.000	1
20090201 14:30	-2.6	-6.2	-2.6	76	-6.2	10	23	112	0.00	1005.523	109	0.000	1
20090201 14:35	-2.6	-6.8	-2.6	77	-6.1	11	23	112	0.00	1005.456	145	0.000	1
20090201 14:40	-2.4	-5.0	-2.4	77	-5.9	6	18	112	0.00	1005.591	321	0.000	1
20090201 14:45	-2.2	-5.3	-2.2	76	-5.8	8	18	112	0.00	1005.625	368	0.000	1
20090201 14:50	-2.0	-5.1	-2.0	76	-5.7	8	16	90	0.00	1005.591	261	0.000	1
20090201 14:55	-2.0	-5.1	-2.0	76	-5.7	8	18	112	0.00	1005.523	116	0.000	0
20090201 15:00	-2.2	-2.2	-2.2	76	-5.8	5	10	90	0.00	1005.422	84	0.060	0
20090201 15:05	-2.3	-2.3	-2.3	77	-5.8	5	8	112	0.00	1005.422	102	0.000	0
20090201 15:10	-2.3	-2.3	-2.3	77	-5.8	3	10	90	0.00	1005.523	109	0.000	0
20090201 15:15	-2.3	-2.3	-2.3	78	-5.6	5	8	90	0.00	1005.557	100	0.000	0
20090201 15:20	-2.3	-2.3	-2.3	78	-5.6	3	8	67	0.00	1005.625	105	0.000	0
20090201 15:25	-2.3	-2.3	-2.3	78	-5.6	5	10	112	0.00	1005.591	105	0.000	0
20090201 15:30	-2.3	-4.8	-2.3	77	-5.8	6	14	112	0.00	1005.557	80	0.000	0
20090201 15:35	-2.3	-2.3	-2.3	77	-5.8	5	16	67	0.00	1005.557	69	0.000	0
20090201 15:40	-2.3	-2.3	-2.3	78	-5.6	5	8	135	0.00	1005.591	79	0.000	0
20090201 15:45	-2.3	-2.3	-2.3	78	-5.6	5	11	135	0.00	1005.523	80	0.000	0
20090201 15:50	-2.3	-2.3	-2.3	78	-5.6	3	8	90	0.00	1005.523	83	0.000	0
20090201 15:55	-2.3	-2.3	-2.3	78	-5.6	3	8	135	0.00	1005.591	73	0.000	0
20090201 16:00	-2.2	-2.2	-2.2	77	-5.7	3	6	135	0.00	1005.659	71	0.020	0
20090201 16:05	-2.2	-2.2	-2.2	78	-5.5	5	11	90	0.00	1005.489	74	0.000	0
20090201 16:10	-2.2	-2.2	-2.2	78	-5.5	3	6	45	0.00	1005.422	78	0.000	0
20090201 16:15	-2.2	-2.2	-2.2	78	-5.5	3	10	135	0.00	1005.388	69	0.000	0
20090201 16:20	-2.2	-2.2	-2.2	78	-5.5	3	6	67	0.00	1005.422	63	0.000	0
20090201 16:25	-2.2	-2.2	-2.2	77	-5.6	5	10	90	0.00	1005.523	46	0.000	0
20090201 16:30	-2.2	-2.2	-2.2	78	-5.5	3	8	90	0.00	1005.523	39	0.000	0
20090201 16:35	-2.2	-2.2	-2.2	78	-5.5	3	8	67	0.00	1005.557	36	0.000	0
20090201 16:40	-2.2	-2.2	-2.2	78	-5.5	5	10	90	0.00	1005.523	31	0.000	0
20090201 16:45	-2.2	-2.2	-2.2	78	-5.5	3	6	90	0.00	1005.354	27	0.000	0
20090201 16:50	-2.2	-2.2	-2.2	78	-5.5	5	8	90	0.00	1005.388	21	0.000	0
20090201 16:55	-2.3	-2.3	-2.3	78	-5.6	3	6	90	0.00	1005.388	18	0.000	0
20090201 17:00	-2.3	-2.3	-2.3	78	-5.6	2	6	135	0.00	1005.557	15	0.020	0
20090201 17:05	-2.3	-2.3	-2.3	79	-5.4	2	5	67	0.00	1005.489	14	0.000	0
20090201 17:10	-2.3	-2.3	-2.3	78	-5.6	3	10	90	0.00	1005.489	4	0.000	0
20090201 17:15	-2.3	-2.3	-2.3	78	-5.6	3	10	135	0.00	1005.422	0	0.000	0
20090201 17:20	-2.4	-2.4	-2.4	78	-5.7	3	8	90	0.00	1005.388	0	0.000	0
20090201 17:25	-2.5	-2.5	-2.5	79	-5.6	2	5	90	0.00	1005.388	0	0.000	0
20090201 17:30	-2.6	-2.6	-2.6	79	-5.7	2	5	135	0.00	1005.557	0	0.000	0
20090201 17:35	-2.7	-2.7	-2.7	79	-5.8	2	5	135	0.00	1005.557	0	0.000	0
20090201 17:40	-2.7	-2.7	-2.7	79	-5.8	2	5	135	0.00	1005.693	0	0.000	0
20090201 17:45	-2.7	-2.7	-2.7	79	-5.9	3	5	112	0.00	1005.726	0	0.000	0
20090201 17:50	-2.8	-2.8	-2.8	79	-5.9	2	5	112	0.00	1005.862	0	0.000	0
20090201 17:55	-2.8	-2.8	-2.8	79	-5.9	2	5	112	0.00	1005.828	0	0.000	0
20090201 18:00	-2.8	-2.8	-2.8	79	-6.0	2	3	112	0.00	1005.693	0	0.000	0
20090201 18:05	-2.9	-2.9	-2.9	80	-5.9	2	3	112	0.00	1005.625	0	0.000	0
20090201 18:10	-3.0	-3.0	-3.0	80	-6.0	2	6	112	0.00	1005.591	0	0.000	0
20090201 18:15	-3.1	-3.1	-3.1	80	-6.0	3	10	135	0.00	1005.557	0	0.000	0
20090201 18:20	-3.1	-3.1	-3.1	81	-5.8	2	5	202	0.00	1006.065	0	0.000	0
20090201 18:25	-3.1	-3.1	-3.1	81	-5.9	2	6	202	0.00	1005.930	0	0.000	0
20090201 18:30	-3.1	-3.1	-3.1	81	-5.9	2	5	202	0.00	1005.828	0	0.000	0
20090201 18:35	-3.1	-3.1	-3.1	81	-5.9	2	3	202	0.00	1005.963	0	0.000	0
20090201 18:40	-3.1	-3.1	-3.1	81	-5.8	2	5	202	0.00	1005.794	0	0.000	0
20090201 18:45	-3.1	-3.1	-3.1	81	-5.9	3	5	202	0.00	1005.896	0	0.000	0
20090201 18:50	-3.2	-3.2	-3.2	81	-6.0	3	5	67	0.00	1005.963	0	0.000	0
20090201 18:55	-3.3	-3.3	-3.3	81	-6.1	2	5	67	0.00	1005.828	0	0.000	0
20090201 19:00	-3.4	-3.4	-3.4	81	-6.2	3	6	67	0.00	1005.760	0	0.000	0
20090201 19:05	-3.5	-3.5	-3.5	82	-6.1	0	3	67	0.00	1005.693	0	0.000	0
20090201 19:10	-3.6	-3.6	-3.6	82	-6.2	2	5	135	0.00	1005.693	0	0.000	0
20090201 19:15	-3.7	-3.7	-3.7	82	-6.3	2	5	135	0.00	1005.794	0	0.000	0
20090201 19:20	-3.7	-3.7	-3.7	82	-6.3	2	5	135	0.00	1005.896	0	0.000	0
20090201 19:25	-3.7	-3.7	-3.7	83	-6.2	0	3	135	0.00	1005.930	0	0.000	0
20090201 19:30	-3.7	-3.7	-3.7	83	-6.2	2	5	135	0.00	1005.828	0	0.000	0
20090201 19:35	-3.8	-3.8	-3.8	83	-6.2	5	10	135	0.00	1005.760	0	0.000	0
20090201 19:40	-3.8	-3.8	-3.8	83	-6.2	2	6	135	0.00	1005.794	0	0.000	0
20090201 19:45	-3.8	-3.8	-3.8	83	-6.3	0	5	135	0.00	1005.828	0	0.000	0
20090201 19:50	-3.8	-3.8	-3.8	83	-6.3	2	3	135	0.00	1005.828	0	0.000	0
20090201 19:55	-3.9	-3.9	-3.9	83	-6.3	3	6	135	0.00	1005.828	0	0.000	0
20090201 20:00	-3.9	-3.9	-3.9	83	-6.4	3	6	135	0.00	1005.760	0	0.000	0
20090201 20:05	-4.1	-4.1	-4.1	83	-6.5	2	5	135	0.00	1005.523	0	0.000	0
20090201 20:10	-4.1	-4.1	-4.1	84	-6.4	2	5	135	0.00	1005.557	0	0.000	0
20090201 20:15	-4.1	-4.1	-4.1	84	-6.4	2	5	157	0.00	1005.693	0	0.000	0
20090201 20:20	-4.1	-4.1	-4.1	84	-6.4	0	3	157	0.00	1005.726	0	0.000	0
20090201 20:25	-4.0	-4.0	-4.0	84	-6.3	0	2	157	0.00	1005.862	0	0.000	0
20090201 20:30	-4.0	-4.0	-4.0	84	-6.3	0	3	157	0.00	1005.828	0	0.000	0
20090201 20:35	-3.9	-3.9	-3.9	84	-6.2	2	5	157	0.00	1005.693	0	0.000	0
20090201 20:40	-3.9	-3.9	-3.9	84	-6.2	0	2	157	0.00	1005.726	0	0.000	0
20090201 20:45	-3.9	-3.9	-3.9	84	-6.2	2	3	157	0.00	1005.726	0	0.000	0
20090201 20:50	-3.9	-3.9	-3.9	84	-6.2	0	3	157	0.00	1005.726	0	0.000	0
20090201 20:55	-3.9	-3.9	-3.9	84	-6.2	0	0	157	0.00	1005.862	0	0.000	0
20090201 21:00	-3.9	-3.9	-3.9	84	-6.2	0	0	157	0.00	1005.963	0	0.000	0
20090201 21:05	-3.8	-3.8	-3.8	84	-6.1	0	0	157	0.00	1005.963	0	0.000	0
20090201 21:10	-3.8	-3.8	-3.8	84	-6.1	0	0	157	0.00	1005.930	0	0.000	0
20090201 21:15	-3.8	-3.8	-3.8	84	-6.1	0	0	157	0.00	1005.930	0	0.000	0
20090201 21:20	-3.9	-3.9	-3.9	84	-6.2	0	2	157	0.00	1006.031	0	0.000	0
20090201 21:25	-3.9	-3.9	-3.9	84	-6.2	0	0	157	0.00	1005.963	0	0.000	0
20090201 21:30	-4.0	-4.0	-4.0	84	-6.3	0	3	157	0.00	1005.862	0	0.000	0
20090201 21:35	-4.1	-4.1	-4.1	84	-6.4	0	3	157	0.00	1005.726	0	0.000	0
20090201 21:40	-4.2	-4.2	-4.2	84	-6.5	0	3	157	0.00	1005.726	0	0.000	0
20090201 21:45	-4.2	-4.2	-4.2	92	-5.3	2	3	157	0.00	1005.726	0	0.000	0
20090201 21:50	-4.2	-4.2	-4.2	85	-6.3	2	5	157	0.00	1005.625	0	0.000	0
20090201 21:55	-4.2	-4.2	-4.2	85	-6.3	2	5	157	0.00	1005.591	0	0.000	0
20090201 22:00	-4.2	-4.2	-4.2	85	-6.4	0	3	157	0.00	1005.726	0	0.000	0
20090201 22:05	-4.2	-4.2	-4.2	85	-6.4	0	2	157	0.00	1005.828	0	0.000	0
20090201 22:10	-4.3	-4.3	-4.3	85	-6.4	0	3	157	0.00	1005.760	0	0.000	0
20090201 22:15	-4.3	-4.3	-4.3	85	-6.4	0	3	157	0.00	1005.794	0	0.000	0
20090201 22:20	-4.2	-4.2	-4.2	85	-6.4	2	3	157	0.00	1005.693	0	0.000	0
20090201 22:25	-4.2	-4.2	-4.2	85	-6.4	0	3	157	0.00	1005.760	0	0.000	0
20090201 22:30	-4.2	-4.2	-4.2	85	-6.4	2	5	157	0.00	1005.693	0	0.000	0
20090201 22:35	-4.2	-4.2	-4.2	85	-6.3	3	8	157	0.00	1005.693	0	0.000	0
20090201 22:40	-4.1	-4.1	-4.1	85	-6.2	5	10	135	0.00	1005.693	0	0.000	0
20090201 22:45	-4.1	-4.1	-4.1	84	-6.4	5	8	112	0.00	1005.862	0	0.000	0
20090201 22:50	-4.1	-4.1	-4.1	84	-6.4	3	6	135	0.00	1005.726	0	0.000	0
20090201 22:55	-4.1	-4.1	-4.1	84	-6.4	5	10	135	0.00	1005.625	0	0.000	0
20090201 23:00	-4.1	-4.1	-4.1	84	-6.4	5	10	112	0.00	1005.591	0	0.000	0
20090201 23:05	-4.0	-6.8	-4.0	84	-6.3	6	11	112	0.00	1005.523	0	0.000	0
20090201 23:10	-3.9	-3.9	-3.9	84	-6.2	5	8	135	0.00	1005.489	0	0.000	0
20090201 23:15	-3.9	-3.9	-3.9	84	-6.2	5	10	135	0.00	1005.557	0	0.000	0
20090201 23:20	-3.9	-3.9	-3.9	84	-6.2	5	10	135	0.00	1005.489	0	0.000	0
20090201 23:25	-3.9	-3.9	-3.9	84	-6.2	5	8	135	0.00	1005.523	0	0.000	0
20090201 23:30	-3.9	-3.9	-3.9	84	-6.2	5	11	112	0.00	1005.489	0	0.000	0
20090201 23:35	-3.9	-3.9	-3.9	84	-6.2	5	10	112	0.00	1005.354	0	0.000	0
20090201 23:40	-3.8	-6.6	-3.8	84	-6.1	6	13	112	0.00	1005.354	0	0.000	0
20090201 23:45	-3.8	-3.8	-3.8	84	-6.1	5	11	135	0.00	1005.286	0	0.000	0
20090201 23:50	-3.8	-6.5	-3.8	84	-6.1	6	16	112	0.00	1005.218	0	0.000	0
20090201 23:55	-3.7	-6.5	-3.7	83	-6.2	6	16	112	0.00	1005.151	0	0.000	0
20090201 24:00	-3.7	-6.5	-3.7	84	-6.0	6	14	112	0.00	1005.083	0	0.000	0



Please note the license to use and transfer of this data:
http://creativecommons.org/licenses/by-nc-sa/3.0/deed.en

Bitte beachten sie die Lizenz zur Verwertung und Weitergabe der Daten:
http://creativecommons.org/licenses/by-nc-sa/3.0/deed.de

zurück zur Übersicht der Archivdaten (Monats und Tagesdaten)

Cookies helfen bei der Bereitstellung von Inhalten. Durch die Nutzung dieser Seiten erklärst du dich damit einverstanden, dass Cookies auf deinem Rechner gespeichert werden. Weitere Information